Time;durP1;ratioP1;P1;durP2;ratioP2;P2;SDS_P1;SDS_P2;PMS_P1;PMS_P2;Temp;Humidity;BMP_temperature;BMP_pressure;BME280_temperature;BME280_humidity;BME280_pressure;Samples;Min_cycle;Max_cycle;Signal;HPM_P1;HPM_P2
2023/04/25 00:02:25;;;;;;;2.03;1.60;;;;;;;9.38;37.65;97787.72;6298072;28;20048;-75
2023/04/25 00:05:29;;;;;;;;;;;;;;;9.33;37.02;97796.72;6298328;28;20082;-75
2023/04/25 00:08:35;;;;;;;2.30;1.85;;;;;;;9.28;37.73;97791.66;6297879;28;19950;-74
2023/04/25 00:11:43;;;;;;;4.05;1.75;;;;;;;9.26;37.59;97795.31;6297461;28;20513;-74
2023/04/25 00:14:49;;;;;;;5.72;1.73;;;;;;;9.30;37.88;97795.06;6297663;28;20049;-75
2023/04/25 00:17:53;;;;;;;2.45;1.42;;;;;;;9.20;37.71;97783.31;6297216;28;20056;-75
2023/04/25 00:21:00;;;;;;;3.75;1.88;;;;;;;9.31;37.84;97796.78;6297343;28;20454;-75
2023/04/25 00:24:08;;;;;;;2.25;1.67;;;;;;;9.32;37.93;97793.25;6297490;28;20056;-74
2023/04/25 00:27:14;;;;;;;2.33;1.42;;;;;;;9.24;37.92;97794.50;6297165;28;20045;-75
2023/04/25 00:30:15;;;;;;;2.53;1.50;;;;;;;9.16;38.16;97797.47;6297010;28;20060;-74
2023/04/25 00:33:17;;;;;;;6.00;1.88;;;;;;;9.13;38.43;97787.09;6296454;28;20048;-75
2023/04/25 00:36:19;;;;;;;1.83;1.58;;;;;;;9.09;38.38;97790.81;6297073;28;20134;-74
2023/04/25 00:39:26;;;;;;;1.60;1.50;;;;;;;9.04;38.83;97787.53;6295860;28;20383;-74
2023/04/25 00:42:31;;;;;;;3.65;1.75;;;;;;;9.05;38.81;97792.69;6297077;28;20532;-75
2023/04/25 00:45:40;;;;;;;4.80;2.10;;;;;;;9.09;38.75;97791.66;6295779;28;20048;-74
2023/04/25 00:48:46;;;;;;;2.50;1.80;;;;;;;9.09;38.82;97790.81;6295843;28;20414;-74
2023/04/25 00:51:50;;;;;;;5.05;2.10;;;;;;;9.03;38.89;97798.91;6296916;28;20036;-74
2023/04/25 00:54:54;;;;;;;3.97;2.00;;;;;;;8.92;39.21;97797.63;6296200;28;20114;-74
2023/04/25 00:57:58;;;;;;;5.65;2.20;;;;;;;8.88;39.23;97798.66;6296357;28;20056;-75
2023/04/25 01:01:01;;;;;;;4.07;2.17;;;;;;;8.86;39.32;97797.91;6296174;28;20498;-74
2023/04/25 01:04:04;;;;;;;2.80;1.98;;;;;;;9.01;38.90;97800.78;6296372;28;20127;-73
2023/04/25 01:07:06;;;;;;;10.98;2.53;;;;;;;9.04;39.16;97808.53;6295816;28;20047;-73
2023/04/25 01:10:10;;;;;;;3.85;1.92;;;;;;;9.05;39.05;97815.47;6296318;28;20493;-73
2023/04/25 01:13:13;;;;;;;5.28;2.63;;;;;;;9.02;39.14;97815.59;6296429;28;20044;-75
2023/04/25 01:16:17;;;;;;;3.22;1.90;;;;;;;9.03;39.12;97815.56;6295599;28;20422;-75
2023/04/25 01:19:21;;;;;;;5.28;2.40;;;;;;;9.03;39.31;97822.53;6295757;28;20049;-75
2023/04/25 01:22:25;;;;;;;6.88;3.25;;;;;;;8.95;39.17;97826.38;6295648;28;20302;-74
2023/04/25 01:25:30;;;;;;;4.57;2.28;;;;;;;8.97;39.29;97828.91;6295685;28;20048;-74
2023/04/25 01:28:40;;;;;;;2.65;1.63;;;;;;;9.06;39.27;97828.53;6295838;28;20044;-74
2023/04/25 01:31:43;;;;;;;2.10;1.70;;;;;;;9.12;39.22;97825.66;6296030;28;20037;-74
2023/04/25 01:34:46;;;;;;;3.22;1.92;;;;;;;9.26;39.09;97825.03;6295481;28;20062;-74
2023/04/25 01:37:51;;;;;;;2.00;1.73;;;;;;;9.36;38.86;97836.81;6295394;28;20053;-74
2023/04/25 01:40:54;;;;;;;3.20;1.73;;;;;;;9.54;38.70;97829.91;6294998;28;20056;-73
2023/04/25 01:43:57;;;;;;;1.85;1.67;;;;;;;9.61;38.60;97835.72;6295254;28;20127;-75
2023/04/25 01:47:01;;;;;;;5.13;1.70;;;;;;;9.76;38.44;97840.25;6295221;28;20556;-75
2023/04/25 01:50:07;;;;;;;2.08;1.70;;;;;;;9.75;38.50;97838.56;6295430;28;20472;-73
2023/04/25 01:53:13;;;;;;;4.50;1.90;;;;;;;9.88;38.54;97838.88;6294423;28;20094;-74
2023/04/25 01:56:21;;;;;;;5.13;1.98;;;;;;;9.86;38.45;97841.56;6294905;28;20040;-74
2023/04/25 01:59:24;;;;;;;2.42;1.95;;;;;;;9.86;38.28;97841.56;6294466;28;20048;-76
2023/04/25 02:02:30;;;;;;;5.53;2.10;;;;;;;9.88;38.36;97839.72;6294308;28;20060;-75
2023/04/25 02:05:40;;;;;;;2.13;1.77;;;;;;;9.96;38.58;97851.63;6294719;28;20055;-75
2023/04/25 02:08:44;;;;;;;2.58;1.77;;;;;;;10.09;38.31;97858.03;6294659;28;20044;-74
2023/04/25 02:11:48;;;;;;;3.53;2.05;;;;;;;10.20;38.19;97841.75;6294994;28;20425;-75
2023/04/25 02:14:52;;;;;;;3.03;1.75;;;;;;;10.37;38.08;97851.50;6294203;28;20045;-74
2023/04/25 02:17:54;;;;;;;3.78;2.08;;;;;;;10.47;38.13;97864.13;6294110;28;20051;-74
2023/04/25 02:20:55;;;;;;;4.63;2.80;;;;;;;10.63;38.08;97858.97;6294265;28;20053;-74
2023/04/25 02:24:00;;;;;;;5.53;2.80;;;;;;;10.69;38.06;97866.53;6293847;28;20049;-75
2023/04/25 02:27:08;;;;;;;4.40;2.83;;;;;;;10.71;38.27;97862.06;6294674;28;20036;-74
2023/04/25 02:30:12;;;;;;;5.45;2.40;;;;;;;10.72;38.19;97862.91;6294746;28;20094;-75
2023/04/25 02:33:20;;;;;;;6.72;2.25;;;;;;;10.67;38.14;97865.78;6294329;28;20051;-75
2023/04/25 02:36:26;;;;;;;5.60;2.00;;;;;;;10.88;38.22;97861.22;6293416;28;20045;-75
2023/04/25 02:39:29;;;;;;;7.88;3.05;;;;;;;11.01;38.00;97871.97;6294192;28;20178;-74
2023/04/25 02:42:36;;;;;;;3.60;2.05;;;;;;;11.04;38.00;97866.59;6294154;28;20147;-75
2023/04/25 02:45:43;;;;;;;6.03;2.30;;;;;;;11.23;37.84;97875.22;6294818;28;20060;-74
2023/04/25 02:48:50;;;;;;;4.05;2.38;;;;;;;11.36;37.79;97872.81;6294288;28;20075;-74
2023/04/25 02:52:00;;;;;;;3.55;2.45;;;;;;;11.46;37.55;97870.53;6294389;28;20040;-74
2023/04/25 02:55:06;;;;;;;7.85;3.17;;;;;;;11.51;37.53;97879.06;6294050;28;20040;-74
2023/04/25 02:58:10;;;;;;;4.68;2.25;;;;;;;11.57;37.48;97883.16;6294657;28;20032;-74
2023/04/25 03:01:12;;;;;;;4.93;2.65;;;;;;;11.61;37.42;97877.66;6294120;28;20055;-74
2023/04/25 03:04:18;;;;;;;8.00;4.10;;;;;;;11.65;37.51;97878.34;6292260;28;20566;-74
2023/04/25 03:07:25;;;;;;;9.60;3.47;;;;;;;11.73;37.50;97888.47;6294001;28;20536;-73
2023/04/25 03:10:29;;;;;;;6.20;3.10;;;;;;;11.81;37.34;97881.03;6297535;28;20048;-74
2023/04/25 03:13:41;;;;;;;4.97;2.80;;;;;;;11.95;37.11;97889.06;6298279;28;20505;-75
2023/04/25 03:16:47;;;;;;;5.05;2.58;;;;;;;12.09;37.00;97881.25;6298425;28;20453;-74
2023/04/25 03:19:51;;;;;;;;;;;;;;;12.28;36.48;97880.22;6298591;28;20051;-74
2023/04/25 03:22:55;;;;;;;4.63;2.25;;;;;;;12.51;36.51;97881.56;6299181;28;19920;-75
2023/04/25 03:26:01;;;;;;;2.20;1.25;;;;;;;12.70;36.33;97878.75;6298724;28;20040;-75
2023/04/25 03:29:11;;;;;;;4.57;2.17;;;;;;;12.77;36.04;97882.75;6298544;28;20055;-75
2023/04/25 03:32:15;;;;;;;6.35;2.30;;;;;;;12.81;36.02;97884.25;6297899;28;20589;-75
2023/04/25 03:35:18;;;;;;;5.57;2.35;;;;;;;12.90;36.04;97883.72;6297979;28;20131;-74
2023/04/25 03:38:22;;;;;;;4.80;2.05;;;;;;;13.01;36.03;97891.88;6298114;28;20048;-75
2023/04/25 03:41:29;;;;;;;7.45;2.60;;;;;;;13.09;35.92;97885.28;6298259;28;20053;-74
2023/04/25 03:44:35;;;;;;;4.50;2.63;;;;;;;13.24;35.89;97887.03;6297078;28;20056;-76
2023/04/25 03:47:39;;;;;;;7.03;3.33;;;;;;;13.42;35.44;97880.69;6297460;28;20513;-74
2023/04/25 03:50:46;;;;;;;5.70;2.22;;;;;;;13.54;35.34;97883.53;6297911;28;20048;-76
2023/04/25 03:53:54;;;;;;;4.95;1.60;;;;;;;13.65;35.08;97881.06;6297940;28;20045;-75
2023/04/25 03:57:01;;;;;;;3.67;2.00;;;;;;;13.77;34.79;97871.53;6297990;28;20071;-74
2023/04/25 04:00:07;;;;;;;3.83;1.98;;;;;;;13.90;34.63;97875.97;6297853;28;20457;-73
2023/04/25 04:03:16;;;;;;;4.18;2.20;;;;;;;14.08;34.27;97878.41;6297443;28;20082;-74
2023/04/25 04:06:20;;;;;;;6.40;2.40;;;;;;;14.20;34.24;97882.91;6297539;28;20060;-74
2023/04/25 04:09:25;;;;;;;5.97;2.35;;;;;;;14.38;34.13;97876.47;6297259;28;20056;-75
2023/04/25 04:12:32;;;;;;;6.72;2.90;;;;;;;14.54;33.85;97880.78;6297390;28;20051;-75
2023/04/25 04:15:41;;;;;;;8.50;2.80;;;;;;;14.77;33.53;97872.19;6297256;28;20056;-75
2023/04/25 04:18:53;;;;;;;5.82;1.98;;;;;;;14.94;32.96;97883.47;6296811;28;20075;-74
2023/04/25 04:21:58;;;;;;;8.45;2.35;;;;;;;15.04;32.75;97884.56;6295295;28;20147;-73
2023/04/25 04:25:02;;;;;;;4.35;1.95;;;;;;;15.17;32.75;97882.81;6297214;28;20054;-74
2023/04/25 04:28:10;;;;;;;3.03;2.33;;;;;;;15.32;32.44;97888.00;6295990;28;20505;-74
2023/04/25 04:31:21;;;;;;;9.23;2.50;;;;;;;15.42;32.19;97881.13;6297122;28;20122;-74
2023/04/25 04:34:24;;;;;;;2.28;1.75;;;;;;;15.67;30.75;97882.94;6296520;28;20051;-74
2023/04/25 04:37:25;;;;;;;2.72;1.55;;;;;;;15.83;30.13;97885.41;6296615;28;20051;-75
2023/04/25 04:40:31;;;;;;;2.60;1.33;;;;;;;16.08;29.31;97888.03;6297068;28;20044;-74
2023/04/25 04:43:33;;;;;;;1.35;1.25;;;;;;;16.24;29.13;97889.56;6296121;28;20271;-75
2023/04/25 04:46:44;;;;;;;1.90;1.55;;;;;;;16.55;28.43;97889.06;6295463;28;20044;-75
2023/04/25 04:49:49;;;;;;;4.10;1.75;;;;;;;16.66;28.45;97882.13;6296452;28;20064;-74
2023/04/25 04:52:55;;;;;;;3.08;1.50;;;;;;;16.88;28.19;97892.88;6295929;28;20044;-74
2023/04/25 04:55:59;;;;;;;2.45;1.55;;;;;;;19.96;24.41;97891.28;6296119;28;20044;-73
2023/04/25 04:59:03;;;;;;;2.35;1.42;;;;;;;24.43;19.48;97911.09;6296326;28;20426;-72
2023/04/25 05:02:07;;;;;;;4.70;1.63;;;;;;;27.59;16.15;97905.47;6296047;28;20417;-73
2023/04/25 05:05:13;;;;;;;3.28;1.50;;;;;;;29.29;14.56;97919.09;6295175;28;20060;-74
2023/04/25 05:08:20;;;;;;;1.27;1.17;;;;;;;31.20;13.24;97909.75;6296381;28;20044;-74
2023/04/25 05:11:25;;;;;;;2.90;1.55;;;;;;;32.79;12.73;97910.72;6295582;28;20431;-74
2023/04/25 05:14:32;;;;;;;2.15;0.90;;;;;;;34.32;11.56;97913.25;6296013;28;20056;-74
2023/04/25 05:17:35;;;;;;;1.70;0.90;;;;;;;35.35;10.75;97913.50;6294683;28;20048;-75
2023/04/25 05:20:39;;;;;;;2.70;0.82;;;;;;;36.66;10.42;97910.66;6296443;28;20044;-74
2023/04/25 05:23:49;;;;;;;2.65;0.95;;;;;;;38.11;9.34;97897.47;6296024;28;20052;-74
2023/04/25 05:26:53;;;;;;;3.78;1.67;;;;;;;40.15;8.45;97897.03;6295754;28;20044;-74
2023/04/25 05:29:57;;;;;;;;;;;;;;;40.78;7.62;97902.63;6295786;28;20540;-74
2023/04/25 05:33:04;;;;;;;2.00;1.23;;;;;;;38.82;8.32;97892.94;6295212;28;19927;-75
2023/04/25 05:36:09;;;;;;;1.58;1.02;;;;;;;38.83;8.11;97900.09;6295855;28;20090;-74
2023/04/25 05:39:13;;;;;;;1.80;0.80;;;;;;;39.07;8.02;97892.44;6295200;28;20182;-74
2023/04/25 05:42:20;;;;;;;4.00;0.70;;;;;;;39.51;7.61;97891.53;6295508;28;20498;-74
2023/04/25 05:45:22;;;;;;;2.55;0.88;;;;;;;40.18;7.69;97890.97;6295277;28;20049;-74
2023/04/25 05:48:33;;;;;;;1.58;0.90;;;;;;;40.88;7.46;97888.06;6295606;28;20129;-74
2023/04/25 05:51:40;;;;;;;1.40;0.70;;;;;;;42.79;6.68;97888.63;6295278;28;20047;-74
2023/04/25 05:54:44;;;;;;;1.65;0.80;;;;;;;43.80;6.30;97891.06;6294998;28;20051;-75
2023/04/25 05:57:48;;;;;;;2.22;0.77;;;;;;;44.12;5.84;97882.19;6294483;28;20040;-74
2023/04/25 06:00:52;;;;;;;4.15;0.88;;;;;;;44.87;5.77;97886.34;6295046;28;20101;-74
2023/04/25 06:03:56;;;;;;;2.65;0.68;;;;;;;45.13;5.18;97888.78;6294684;28;20044;-75
2023/04/25 06:07:03;;;;;;;3.95;0.75;;;;;;;44.91;5.21;97895.75;6295228;28;20418;-74
2023/04/25 06:10:06;;;;;;;1.85;0.73;;;;;;;44.03;5.55;97872.88;6293581;28;20099;-75
2023/04/25 06:13:11;;;;;;;0.77;0.60;;;;;;;42.91;5.76;97880.00;6295854;28;20513;-74
2023/04/25 06:16:16;;;;;;;1.48;0.75;;;;;;;42.93;5.79;97871.41;6294301;28;20057;-75
2023/04/25 06:19:22;;;;;;;2.28;1.00;;;;;;;41.59;6.62;97847.91;6295325;28;20048;-75
2023/04/25 06:22:28;;;;;;;2.13;1.50;;;;;;;42.64;6.27;97866.53;6295021;28;20573;-74
2023/04/25 06:25:32;;;;;;;3.53;1.45;;;;;;;42.49;6.01;97855.53;6294917;28;20048;-75
2023/04/25 06:28:39;;;;;;;1.83;0.80;;;;;;;42.66;6.01;97869.81;6295189;28;20044;-74
2023/04/25 06:31:48;;;;;;;1.42;0.82;;;;;;;42.26;6.21;97852.25;6295199;28;20123;-74
2023/04/25 06:34:56;;;;;;;3.05;0.70;;;;;;;41.51;6.51;97860.34;6294713;28;20054;-74
2023/04/25 06:38:01;;;;;;;3.00;1.40;;;;;;;41.68;6.52;97854.53;6294278;28;20146;-74
2023/04/25 06:41:07;;;;;;;1.92;0.90;;;;;;;41.48;6.29;97853.44;6295004;28;20040;-74
2023/04/25 06:44:09;;;;;;;5.68;1.20;;;;;;;40.51;6.98;97858.66;6315277;28;20098;-74
2023/04/25 06:47:18;;;;;;;2.03;1.05;;;;;;;40.27;7.20;97843.63;6303171;28;20040;-74
2023/04/25 06:50:23;;;;;;;1.67;0.77;;;;;;;40.92;6.89;97850.53;6302173;28;20558;-75
2023/04/25 06:53:27;;;;;;;1.00;0.82;;;;;;;42.35;6.47;97856.13;6303126;28;20044;-75
2023/04/25 06:56:37;;;;;;;3.28;0.75;;;;;;;42.08;6.20;97841.81;6303046;28;20425;-75
2023/04/25 06:59:41;;;;;;;1.33;0.80;;;;;;;41.08;6.74;97836.78;6300162;28;20045;-74
2023/04/25 07:02:50;;;;;;;0.93;0.52;;;;;;;42.57;6.33;97821.72;6302677;28;20048;-75
2023/04/25 07:05:53;;;;;;;2.35;0.77;;;;;;;43.76;5.58;97845.63;6302789;28;20048;-75
2023/04/25 07:09:00;;;;;;;1.88;0.90;;;;;;;42.71;6.11;97825.53;6302258;28;20461;-75
2023/04/25 07:12:17;;;;;;;2.75;0.70;;;;;;;43.49;5.69;97823.97;6302392;28;20041;-74
2023/04/25 07:15:20;;;;;;;1.05;0.70;;;;;;;43.19;5.70;97825.84;6301448;28;20202;-74
2023/04/25 07:18:22;;;;;;;1.70;0.70;;;;;;;43.73;5.56;97829.59;6300463;28;20560;-75
2023/04/25 07:21:32;;;;;;;2.00;1.63;;;;;;;42.21;5.83;97805.28;6302650;28;20158;-74
2023/04/25 07:24:42;;;;;;;1.75;1.40;;;;;;;42.70;5.83;97793.44;6302581;28;20040;-74
2023/04/25 07:27:45;;;;;;;1.90;0.82;;;;;;;42.42;6.08;97800.50;6300834;28;20056;-75
2023/04/25 07:30:52;;;;;;;0.85;0.70;;;;;;;41.93;5.95;97810.31;6301042;28;20425;-74
2023/04/25 07:33:56;;;;;;;1.63;0.80;;;;;;;41.64;6.23;97790.69;6302512;28;20146;-75
2023/04/25 07:37:03;;;;;;;0.98;0.70;;;;;;;42.68;6.01;97787.34;6302109;28;20498;-75
2023/04/25 07:40:05;;;;;;;1.42;0.73;;;;;;;43.22;5.35;97789.25;6302435;28;20055;-74
2023/04/25 07:43:07;;;;;;;1.75;1.00;;;;;;;43.35;5.47;97795.28;6300601;28;20044;-74
2023/04/25 07:46:14;;;;;;;1.38;0.90;;;;;;;43.51;5.71;97794.00;6302342;28;20044;-74
2023/04/25 07:49:21;;;;;;;1.33;0.70;;;;;;;42.30;6.22;97773.16;6302176;28;20032;-74
2023/04/25 07:52:28;;;;;;;0.65;0.65;;;;;;;42.82;5.92;97776.53;6302503;28;20048;-75
2023/04/25 07:55:29;;;;;;;0.70;0.65;;;;;;;42.75;6.02;97776.84;6299544;28;20052;-74
2023/04/25 07:58:36;;;;;;;4.55;0.80;;;;;;;42.59;5.80;97769.72;6297512;28;20080;-74
2023/04/25 08:01:40;;;;;;;1.48;0.93;;;;;;;41.89;6.30;97753.88;6297428;28;20099;-74
2023/04/25 08:04:49;;;;;;;1.50;0.73;;;;;;;43.10;6.14;97761.09;6312671;28;20522;-74
2023/04/25 08:07:56;;;;;;;1.17;0.60;;;;;;;43.24;5.84;97751.03;6297524;28;20056;-75
2023/04/25 08:11:01;;;;;;;1.35;0.70;;;;;;;43.23;5.25;97754.94;6296928;28;20063;-75
2023/04/25 08:14:07;;;;;;;0.85;0.65;;;;;;;41.86;5.89;97742.56;6297795;28;20041;-74
2023/04/25 08:17:12;;;;;;;1.80;0.82;;;;;;;41.45;6.26;97737.94;6296822;28;20406;-75
2023/04/25 08:20:16;;;;;;;2.13;0.90;;;;;;;41.23;5.95;97734.66;6297754;28;20135;-75
2023/04/25 08:23:20;;;;;;;1.40;0.80;;;;;;;41.26;6.18;97745.13;6297470;28;20048;-74
2023/04/25 08:26:28;;;;;;;2.63;1.17;;;;;;;41.89;6.46;97726.25;6297545;28;20425;-75
2023/04/25 08:29:37;;;;;;;0.75;0.50;;;;;;;42.93;5.62;97730.22;6297610;28;20041;-74
2023/04/25 08:32:41;;;;;;;2.20;0.88;;;;;;;43.22;5.75;97722.78;6296885;28;20056;-75
2023/04/25 08:35:50;;;;;;;4.25;2.13;;;;;;;42.32;5.67;97718.38;6297516;28;20059;-75
2023/04/25 08:38:52;;;;;;;2.92;1.08;;;;;;;41.25;5.72;97707.59;6296494;28;20059;-74
2023/04/25 08:42:01;;;;;;;2.63;0.90;;;;;;;40.10;6.44;97705.97;6296652;28;20048;-75
2023/04/25 08:45:09;;;;;;;1.63;0.80;;;;;;;39.89;6.37;97705.03;6297016;28;20044;-75
2023/04/25 08:48:21;;;;;;;0.98;0.77;;;;;;;38.53;7.01;97696.22;6296819;28;20075;-74
2023/04/25 08:51:31;;;;;;;1.38;0.80;;;;;;;38.02;7.18;97699.22;6296813;28;20053;-75
2023/04/25 08:54:48;;;;;;;2.92;0.85;;;;;;;37.71;7.43;97695.22;6296705;28;20044;-74
2023/04/25 08:57:56;;;;;;;2.80;0.70;;;;;;;39.50;6.73;97703.44;6296573;28;20041;-74
2023/04/25 09:00:59;;;;;;;1.27;0.85;;;;;;;41.15;5.99;97700.13;6296518;28;20032;-75
2023/04/25 09:04:04;;;;;;;1.38;0.90;;;;;;;40.94;5.90;97699.28;6295303;28;20079;-74
2023/04/25 09:07:11;;;;;;;2.13;0.70;;;;;;;40.49;5.71;97731.19;6295384;28;20045;-74
2023/04/25 09:10:14;;;;;;;2.40;0.50;;;;;;;39.23;6.13;97692.47;6295963;28;20110;-75
2023/04/25 09:13:24;;;;;;;2.88;1.30;;;;;;;38.19;6.93;97688.16;6295491;28;20524;-75
2023/04/25 09:16:31;;;;;;;2.47;1.10;;;;;;;37.95;6.78;97685.66;6295656;28;20131;-74
2023/04/25 09:19:40;;;;;;;3.28;1.02;;;;;;;38.30;6.88;97673.41;6295787;28;20394;-75
2023/04/25 09:22:45;;;;;;;1.20;1.00;;;;;;;38.89;6.33;97702.09;6295000;28;20135;-74
2023/04/25 09:25:48;;;;;;;4.20;1.77;;;;;;;38.47;6.07;97672.53;6295327;28;20049;-74
2023/04/25 09:29:07;;;;;;;9.75;1.27;;;;;;;38.12;6.65;97684.78;6295550;28;20480;-74
2023/04/25 09:32:21;;;;;;;0.85;0.82;;;;;;;36.62;7.28;97664.41;6294252;28;20048;-74
2023/04/25 09:35:27;;;;;;;1.40;0.90;;;;;;;35.83;7.40;97666.13;6295428;28;20362;-75
2023/04/25 09:38:32;;;;;;;2.75;1.05;;;;;;;35.77;7.40;97650.66;6295885;28;20480;-74
2023/04/25 09:41:41;;;;;;;2.22;1.00;;;;;;;36.40;7.54;97660.66;6295727;28;20053;-75
2023/04/25 09:44:47;;;;;;;1.73;1.08;;;;;;;36.57;6.86;97650.59;6295532;28;20044;-74
2023/04/25 09:47:49;;;;;;;1.55;0.93;;;;;;;35.75;7.58;97651.75;6295086;28;20442;-73
2023/04/25 09:51:15;;;;;;;2.97;1.00;;;;;;;34.78;7.74;97640.44;6295378;28;20048;-75
2023/04/25 09:54:16;;;;;;;0.60;0.60;;;;;;;35.52;7.67;97651.75;6293462;28;20152;-74
2023/04/25 09:57:20;;;;;;;1.25;0.90;;;;;;;35.23;7.85;97651.66;6294508;28;20528;-74
2023/04/25 10:00:27;;;;;;;10.70;7.38;;;;;;;35.36;8.20;97647.84;6295096;28;20544;-76
2023/04/25 10:03:35;;;;;;;2.53;1.00;;;;;;;35.08;8.35;97643.94;6295053;28;20049;-75
2023/04/25 10:06:37;;;;;;;2.05;0.90;;;;;;;34.33;8.79;97627.22;6293453;28;20564;-75
2023/04/25 10:09:39;;;;;;;;;;;;;;;35.35;8.00;97645.34;6295136;28;20182;-76
2023/04/25 10:12:47;;;;;;;4.38;1.20;;;;;;;34.20;8.91;97631.00;6293884;28;19916;-74
2023/04/25 10:15:54;;;;;;;1.27;1.00;;;;;;;33.03;8.95;97653.72;6295007;28;20040;-74
2023/04/25 10:19:00;;;;;;;2.45;1.20;;;;;;;31.55;10.40;97618.56;6294095;28;20040;-75
2023/04/25 10:22:15;;;;;;;1.00;0.70;;;;;;;32.24;9.53;97632.47;6293948;28;20059;-74
2023/04/25 10:25:23;;;;;;;1.65;1.00;;;;;;;32.08;10.13;97623.78;6295033;28;20048;-75
2023/04/25 10:28:47;;;;;;;1.23;0.90;;;;;;;32.33;10.10;97620.25;6293580;28;20067;-74
2023/04/25 10:31:53;;;;;;;1.63;0.95;;;;;;;32.01;10.12;97606.63;6294551;28;20041;-75
2023/04/25 10:34:57;;;;;;;1.38;0.73;;;;;;;31.76;10.70;97621.00;6294416;28;20082;-73
2023/04/25 10:38:09;;;;;;;2.38;1.10;;;;;;;32.14;10.45;97601.13;6294313;28;20154;-74
2023/04/25 10:41:18;;;;;;;1.85;1.02;;;;;;;31.70;10.46;97599.22;6294325;28;20040;-74
2023/04/25 10:44:22;;;;;;;1.70;1.10;;;;;;;31.67;10.87;97605.94;6294534;28;20049;-74
2023/04/25 10:47:43;;;;;;;4.47;1.60;;;;;;;31.39;10.88;97613.59;6294316;28;20059;-75
2023/04/25 10:51:06;;;;;;;1.55;1.30;;;;;;;31.00;10.95;97594.44;6294486;28;20417;-75
2023/04/25 10:54:17;;;;;;;1.58;1.00;;;;;;;31.12;10.64;97591.88;6293358;28;20048;-75
2023/04/25 10:57:46;;;;;;;2.22;1.42;;;;;;;31.81;10.51;97590.38;6294447;28;20036;-75
2023/04/25 11:00:50;;;;;;;2.63;1.10;;;;;;;31.23;10.52;97607.53;6293291;28;20049;-74
2023/04/25 11:03:57;;;;;;;1.75;0.70;;;;;;;30.22;11.54;97591.47;6293409;28;20052;-74
2023/04/25 11:07:16;;;;;;;1.08;0.90;;;;;;;29.81;11.76;97608.69;6294912;28;20490;-74
2023/04/25 11:10:26;;;;;;;7.63;1.10;;;;;;;29.51;11.61;97572.88;6294162;28;20123;-74
2023/04/25 11:13:35;;;;;;;1.00;0.88;;;;;;;29.53;11.40;97582.47;6293546;28;20052;-75
2023/04/25 11:16:39;;;;;;;3.03;1.00;;;;;;;28.78;11.83;97573.28;6290817;28;20052;-75
2023/04/25 11:19:43;;;;;;;2.47;1.00;;;;;;;28.53;12.19;97588.28;6294136;28;20045;-75
2023/04/25 11:22:50;;;;;;;3.75;1.10;;;;;;;28.11;12.72;97557.50;6293921;28;20048;-73
2023/04/25 11:25:56;;;;;;;1.45;0.90;;;;;;;28.10;12.99;97567.50;6292380;28;20053;-74
2023/04/25 11:29:00;;;;;;;2.80;1.20;;;;;;;28.34;12.57;97562.72;6294015;28;20056;-75
2023/04/25 11:32:04;;;;;;;2.90;1.50;;;;;;;28.71;12.12;97567.00;6298064;28;20064;-75
2023/04/25 11:39:09;;;;;;;1.65;1.10;;;;;;;27.93;12.78;97560.66;6274427;28;20548;-74
2023/04/25 11:42:20;;;;;;;1.40;0.98;;;;;;;27.72;13.13;97556.88;6297726;28;20076;-75
2023/04/25 11:45:40;;;;;;;2.17;0.95;;;;;;;27.72;12.97;97556.06;6282731;28;20502;-74
2023/04/25 11:48:50;;;;;;;2.08;1.33;;;;;;;27.40;13.06;97557.34;6298121;28;20056;-74
2023/04/25 11:51:57;;;;;;;2.28;1.20;;;;;;;27.05;13.44;97549.81;6298058;28;20098;-74
2023/04/25 11:55:01;;;;;;;4.07;1.30;;;;;;;26.78;13.69;97543.22;6298098;28;20060;-74
2023/04/25 11:58:22;;;;;;;4.70;1.35;;;;;;;26.58;14.17;97542.91;6297479;28;20064;-74
2023/04/25 12:01:38;;;;;;;2.92;1.10;;;;;;;26.60;14.46;97561.59;6297457;28;20075;-74
2023/04/25 12:04:45;;;;;;;1.52;1.27;;;;;;;26.41;14.56;97544.91;6296171;28;20037;-75
2023/04/25 12:07:52;;;;;;;3.10;1.10;;;;;;;26.21;14.57;97551.81;6297629;28;20040;-74
2023/04/25 12:10:59;;;;;;;2.58;1.27;;;;;;;25.81;14.40;97545.69;6297637;28;20040;-75
2023/04/25 12:14:05;;;;;;;4.70;1.10;;;;;;;25.68;14.07;97545.47;6297595;28;20086;-74
2023/04/25 12:17:09;;;;;;;1.67;0.98;;;;;;;25.56;14.17;97536.09;6296802;28;20048;-75
2023/04/25 12:20:15;;;;;;;3.50;1.35;;;;;;;25.35;14.01;97537.56;6297404;28;20472;-75
2023/04/25 12:23:24;;;;;;;4.03;2.42;;;;;;;25.63;14.37;97553.25;6296528;28;20461;-75
2023/04/25 12:26:48;;;;;;;3.47;1.55;;;;;;;25.80;14.03;97538.63;6297230;28;20419;-74
2023/04/25 12:29:54;;;;;;;4.15;1.60;;;;;;;25.79;14.11;97536.97;6296857;28;20041;-75
2023/04/25 12:33:00;;;;;;;2.25;1.58;;;;;;;26.02;14.21;97536.16;6297507;28;20131;-75
2023/04/25 12:36:08;;;;;;;2.20;1.60;;;;;;;26.07;13.29;97533.72;6297111;28;20044;-74
2023/04/25 12:39:22;;;;;;;2.47;1.30;;;;;;;25.85;13.07;97530.88;6296658;28;20037;-75
2023/04/25 12:42:31;;;;;;;4.22;2.00;;;;;;;25.65;13.58;97526.97;6293987;28;20143;-74
2023/04/25 12:45:38;;;;;;;4.45;2.00;;;;;;;25.48;14.23;97529.75;6296698;28;20430;-74
2023/04/25 12:48:45;;;;;;;4.25;1.63;;;;;;;25.07;14.47;97521.81;6296158;28;20040;-76
2023/04/25 12:51:49;;;;;;;2.42;1.58;;;;;;;24.63;14.90;97525.03;6296473;28;20052;-77
2023/04/25 12:54:52;;;;;;;1.90;1.63;;;;;;;24.51;15.23;97530.94;6296405;28;20060;-74
2023/04/25 12:57:59;;;;;;;2.53;1.63;;;;;;;24.25;15.43;97525.72;6295934;28;20441;-75
2023/04/25 13:01:02;;;;;;;3.15;1.42;;;;;;;24.16;15.71;97520.34;6295573;28;20142;-75
2023/04/25 13:04:06;;;;;;;3.58;2.40;;;;;;;24.07;16.03;97513.31;6295683;28;20056;-75
2023/04/25 13:07:10;;;;;;;8.15;2.08;;;;;;;23.91;16.39;97524.06;6295591;28;20040;-74
2023/04/25 13:10:17;;;;;;;3.35;1.75;;;;;;;23.94;16.22;97518.34;6296061;28;20048;-75
2023/04/25 13:13:22;;;;;;;4.00;1.70;;;;;;;23.83;16.13;97516.00;6295897;28;20406;-74
2023/04/25 13:16:23;;;;;;;2.38;1.58;;;;;;;23.69;16.45;97523.69;6294840;28;20158;-74
2023/04/25 13:19:30;;;;;;;3.47;1.38;;;;;;;23.35;16.88;97531.81;6295347;28;20041;-74
2023/04/25 13:22:36;;;;;;;4.60;1.70;;;;;;;22.93;17.01;97502.28;6295115;28;20056;-74
2023/04/25 13:25:40;;;;;;;5.18;2.20;;;;;;;22.56;16.90;97496.28;6295470;28;20510;-74
2023/04/25 13:28:44;;;;;;;4.20;2.17;;;;;;;22.67;16.66;97532.69;6295809;28;20537;-75
2023/04/25 13:31:50;;;;;;;4.47;2.10;;;;;;;22.54;16.98;97519.72;6294204;28;20036;-74
2023/04/25 13:34:57;;;;;;;2.80;2.03;;;;;;;22.41;17.04;97525.50;6295720;28;20040;-75
2023/04/25 13:38:02;;;;;;;2.55;1.98;;;;;;;22.32;16.90;97513.06;6294977;28;20585;-75
2023/04/25 13:41:11;;;;;;;3.85;2.25;;;;;;;22.34;16.88;97507.53;6294606;28;20040;-75
2023/04/25 13:44:18;;;;;;;3.13;2.17;;;;;;;22.27;17.21;97501.94;6295165;28;20052;-75
2023/04/25 13:47:22;;;;;;;5.60;2.35;;;;;;;22.32;17.25;97496.97;6295096;28;20512;-74
2023/04/25 13:50:30;;;;;;;3.33;2.25;;;;;;;22.37;17.67;97488.47;6295114;28;20505;-74
2023/04/25 13:53:39;;;;;;;4.45;2.65;;;;;;;22.25;17.77;97495.94;6294767;28;20040;-75
2023/04/25 13:56:42;;;;;;;4.82;2.90;;;;;;;22.20;17.48;97487.50;6294396;28;20509;-75
2023/04/25 13:59:46;;;;;;;4.88;2.28;;;;;;;21.91;17.88;97480.59;6293764;28;20040;-74
2023/04/25 14:02:50;;;;;;;4.57;3.05;;;;;;;21.66;17.97;97486.75;6294396;28;20064;-74
2023/04/25 14:05:53;;;;;;;7.20;2.90;;;;;;;21.42;18.30;97480.13;6294627;28;20052;-75
2023/04/25 14:09:00;;;;;;;5.15;3.25;;;;;;;21.22;18.36;97476.72;6294781;28;20056;-75
2023/04/25 14:12:05;;;;;;;5.47;3.00;;;;;;;21.10;18.21;97480.63;6294978;28;20053;-75
2023/04/25 14:15:10;;;;;;;6.50;3.22;;;;;;;21.02;18.29;97481.38;6295127;28;20048;-75
2023/04/25 14:18:16;;;;;;;10.25;3.10;;;;;;;21.00;18.23;97485.19;6294222;28;20060;-74
2023/04/25 14:21:20;;;;;;;3.85;2.60;;;;;;;20.95;17.96;97477.63;6294452;28;20044;-75
2023/04/25 14:24:28;;;;;;;4.45;3.22;;;;;;;20.94;17.78;97486.63;6294413;28;20401;-75
2023/04/25 14:27:34;;;;;;;3.90;2.58;;;;;;;20.97;17.76;97486.31;6293795;28;20198;-74
2023/04/25 14:30:38;;;;;;;7.80;3.00;;;;;;;20.79;17.78;97493.47;6294198;28;20044;-74
2023/04/25 14:33:42;;;;;;;3.65;2.22;;;;;;;20.71;18.08;97490.69;6293733;28;20155;-75
2023/04/25 14:36:49;;;;;;;4.60;2.38;;;;;;;20.56;18.42;97493.00;6294170;28;20131;-75
2023/04/25 14:39:54;;;;;;;5.32;3.22;;;;;;;20.25;18.63;97489.72;6293811;28;20561;-75
2023/04/25 14:42:57;;;;;;;6.85;2.83;;;;;;;20.11;18.59;97502.53;6294375;28;20084;-76
2023/04/25 14:46:04;;;;;;;3.70;2.30;;;;;;;20.08;19.24;97502.81;6293760;28;20521;-76
2023/04/25 14:49:10;;;;;;;6.93;2.75;;;;;;;20.00;19.33;97492.00;6294284;28;20127;-75